Time;durP1;ratioP1;P1;durP2;ratioP2;P2;SDS_P1;SDS_P2;PMS_P1;PMS_P2;Temp;Humidity;BMP_temperature;BMP_pressure;BME280_temperature;BME280_humidity;BME280_pressure;Samples;Min_cycle;Max_cycle;Signal;HPM_P1;HPM_P2
2021/08/18 00:01:56;;;;;;;13.50;4.70;;;;;;;;;;5077963;28;20020;-41
2021/08/18 00:04:22;;;;;;;6.18;4.10;;;;;;;;;;5076278;28;20550;-45
2021/08/18 00:06:47;;;;;;;11.65;3.47;;;;;;;;;;5088127;28;20025;-42
2021/08/18 00:09:13;;;;;;;11.82;4.75;;;;;;;;;;5069811;28;20025;-40
2021/08/18 00:11:38;;;;;;;11.32;2.65;;;;;;;;;;5076804;28;20055;-41
2021/08/18 00:14:03;;;;;;;8.48;3.75;;;;;;;;;;5074986;28;20016;-43
2021/08/18 00:16:29;;;;;;;19.70;4.60;;;;;;;;;;5074158;28;20075;-40
2021/08/18 00:18:54;;;;;;;8.65;4.38;;;;;;;;;;5077103;28;20907;-42
2021/08/18 00:21:20;;;;;;;9.65;3.97;;;;;;;;;;5078126;28;20027;-42
2021/08/18 00:23:45;;;;;;;11.23;3.03;;;;;;;;;;5076433;28;20046;-42
2021/08/18 00:26:11;;;;;;;12.25;5.35;;;;;;;;;;5076677;28;20373;-42
2021/08/18 00:28:36;;;;;;;4.10;2.65;;;;;;;;;;5077612;28;20031;-40
2021/08/18 00:31:02;;;;;;;7.35;4.57;;;;;;;;;;5071253;28;20025;-41
2021/08/18 00:33:28;;;;;;;10.27;4.40;;;;;;;;;;5077962;28;20028;-43
2021/08/18 00:35:54;;;;;;;8.75;4.05;;;;;;;;;;5073842;28;20027;-41
2021/08/18 00:38:19;;;;;;;10.57;4.20;;;;;;;;;;5072371;28;20025;-40
2021/08/18 00:40:44;;;;;;;7.13;4.25;;;;;;;;;;5069929;28;20033;-43
2021/08/18 00:43:09;;;;;;;7.68;3.42;;;;;;;;;;5073516;28;20016;-40
2021/08/18 00:45:35;;;;;;;6.65;4.00;;;;;;;;;;5073941;28;20400;-39
2021/08/18 00:48:00;;;;;;;9.30;4.07;;;;;;;;;;5067612;28;20028;-44
2021/08/18 00:50:26;;;;;;;5.97;4.18;;;;;;;;;;5072258;28;20081;-41
2021/08/18 00:52:53;;;;;;;14.02;4.75;;;;;;;;;;5073867;28;20023;-41
2021/08/18 00:55:22;;;;;;;13.40;5.93;;;;;;;;;;5076673;28;20024;-40
2021/08/18 00:57:48;;;;;;;9.25;4.40;;;;;;;;;;5074291;28;20531;-41
2021/08/18 01:00:14;;;;;;;8.35;5.07;;;;;;;;;;5075530;28;20107;-43
2021/08/18 01:02:43;;;;;;;6.50;4.40;;;;;;;;;;5071907;28;20075;-40
2021/08/18 01:05:10;;;;;;;12.35;5.93;;;;;;;;;;5069872;28;20028;-41
2021/08/18 01:07:36;;;;;;;5.57;3.30;;;;;;;;;;5067728;28;20107;-40
2021/08/18 01:10:05;;;;;;;6.53;4.07;;;;;;;;;;5068645;28;20462;-41
2021/08/18 01:12:31;;;;;;;4.65;3.70;;;;;;;;;;5070434;28;20440;-40
2021/08/18 01:14:56;;;;;;;4.00;2.97;;;;;;;;;;5073575;28;20025;-41
2021/08/18 01:17:21;;;;;;;11.00;4.93;;;;;;;;;;5073744;28;20021;-40
2021/08/18 01:19:46;;;;;;;8.95;4.53;;;;;;;;;;5067195;28;20640;-42
2021/08/18 01:22:12;;;;;;;12.30;4.97;;;;;;;;;;5068342;28;20795;-40
2021/08/18 01:24:37;;;;;;;5.60;3.53;;;;;;;;;;5074370;28;20108;-40
2021/08/18 01:27:03;;;;;;;10.63;4.53;;;;;;;;;;5072159;28;20032;-40
2021/08/18 01:29:28;;;;;;;10.98;4.68;;;;;;;;;;5077338;28;20528;-42
2021/08/18 01:31:56;;;;;;;9.70;3.35;;;;;;;;;;5072863;28;20476;-43
2021/08/18 01:34:21;;;;;;;13.40;4.90;;;;;;;;;;5071930;28;20031;-40
2021/08/18 01:36:47;;;;;;;8.23;5.03;;;;;;;;;;5076087;28;20009;-39
2021/08/18 01:39:12;;;;;;;7.10;3.53;;;;;;;;;;5071913;28;20048;-41
2021/08/18 01:41:37;;;;;;;6.13;4.15;;;;;;;;;;5073669;28;20028;-43
2021/08/18 01:44:03;;;;;;;5.40;3.28;;;;;;;;;;5071129;28;20035;-41
2021/08/18 01:46:28;;;;;;;5.00;3.33;;;;;;;;;;5071458;28;20424;-39
2021/08/18 01:48:53;;;;;;;8.15;4.43;;;;;;;;;;5073442;28;20020;-40
2021/08/18 01:51:19;;;;;;;5.95;4.45;;;;;;;;;;5078245;28;20527;-42
2021/08/18 01:53:50;;;;;;;11.13;4.80;;;;;;;;;;5071559;28;20021;-40
2021/08/18 01:56:19;;;;;;;9.63;3.95;;;;;;;;;;5069475;28;20038;-43
2021/08/18 01:58:45;;;;;;;7.05;3.60;;;;;;;;;;5070622;28;20059;-40
2021/08/18 02:01:12;;;;;;;6.60;3.55;;;;;;;;;;5070639;28;20048;-44
2021/08/18 02:03:37;;;;;;;7.03;4.60;;;;;;;;;;5074448;28;20052;-43
2021/08/18 02:06:03;;;;;;;13.60;4.78;;;;;;;;;;5076020;28;20044;-41
2021/08/18 02:08:28;;;;;;;11.70;6.25;;;;;;;;;;5074275;28;20035;-41
2021/08/18 02:10:54;;;;;;;9.48;4.18;;;;;;;;;;5076752;28;20027;-43
2021/08/18 02:13:19;;;;;;;11.75;4.30;;;;;;;;;;5078017;28;20021;-41
2021/08/18 02:15:45;;;;;;;4.60;3.13;;;;;;;;;;5072972;28;20055;-42
2021/08/18 02:18:14;;;;;;;5.20;2.88;;;;;;;;;;5075705;28;20479;-41
2021/08/18 02:20:40;;;;;;;8.85;5.40;;;;;;;;;;5079161;28;20020;-43
2021/08/18 02:23:05;;;;;;;19.52;5.78;;;;;;;;;;5070592;28;20498;-42
2021/08/18 02:25:31;;;;;;;12.45;6.40;;;;;;;;;;5078257;28;20025;-39
2021/08/18 02:27:56;;;;;;;10.50;3.92;;;;;;;;;;5073218;28;20487;-38
2021/08/18 02:30:23;;;;;;;8.50;5.32;;;;;;;;;;5076780;28;20024;-38
2021/08/18 02:32:49;;;;;;;11.52;5.95;;;;;;;;;;5074207;28;20150;-39
2021/08/18 02:35:14;;;;;;;9.93;4.07;;;;;;;;;;5074229;28;20110;-40
2021/08/18 02:37:39;;;;;;;11.20;4.28;;;;;;;;;;5073436;28;20103;-38
2021/08/18 02:40:05;;;;;;;13.40;4.95;;;;;;;;;;5072654;28;20052;-38
2021/08/18 02:42:31;;;;;;;8.50;4.10;;;;;;;;;;5079032;28;20023;-40
2021/08/18 02:44:56;;;;;;;6.72;4.10;;;;;;;;;;5075618;28;20483;-39
2021/08/18 02:47:21;;;;;;;5.80;4.40;;;;;;;;;;5075737;28;20440;-39
2021/08/18 02:49:47;;;;;;;5.60;3.38;;;;;;;;;;5078325;28;20015;-39
2021/08/18 02:52:12;;;;;;;7.80;4.53;;;;;;;;;;5074677;28;20024;-39
2021/08/18 02:54:37;;;;;;;9.65;4.90;;;;;;;;;;5072961;28;20031;-39
2021/08/18 02:57:03;;;;;;;12.18;5.00;;;;;;;;;;5071734;28;20483;-40
2021/08/18 02:59:28;;;;;;;5.10;4.57;;;;;;;;;;5074200;28;20158;-44
2021/08/18 03:01:53;;;;;;;10.38;4.18;;;;;;;;;;5070393;28;20510;-39
2021/08/18 03:04:19;;;;;;;9.25;4.78;;;;;;;;;;5075094;28;20031;-39
2021/08/18 03:06:44;;;;;;;17.48;5.57;;;;;;;;;;5073679;28;20105;-42
2021/08/18 03:09:10;;;;;;;15.75;4.78;;;;;;;;;;5072067;28;20020;-40
2021/08/18 03:11:35;;;;;;;7.65;4.68;;;;;;;;;;5078604;28;20494;-39
2021/08/18 03:14:00;;;;;;;10.32;5.22;;;;;;;;;;5076347;28;20028;-39
2021/08/18 03:16:26;;;;;;;9.07;3.88;;;;;;;;;;5072989;28;20017;-39
2021/08/18 03:18:51;;;;;;;7.07;3.58;;;;;;;;;;5074946;28;20044;-40
2021/08/18 03:21:17;;;;;;;9.48;3.50;;;;;;;;;;5071935;28;20539;-39
2021/08/18 03:23:42;;;;;;;4.97;3.70;;;;;;;;;;5079193;28;20020;-40
2021/08/18 03:26:08;;;;;;;6.60;3.83;;;;;;;;;;5078223;28;20437;-41
2021/08/18 03:28:33;;;;;;;15.13;4.78;;;;;;;;;;5075693;28;20026;-40
2021/08/18 03:30:58;;;;;;;17.45;5.53;;;;;;;;;;5078929;28;20032;-41
2021/08/18 03:33:23;;;;;;;4.65;4.00;;;;;;;;;;5074710;28;20048;-43
2021/08/18 03:35:49;;;;;;;7.07;3.42;;;;;;;;;;5078069;28;20016;-41
2021/08/18 03:38:14;;;;;;;14.88;5.45;;;;;;;;;;5076072;28;20585;-39
2021/08/18 03:40:40;;;;;;;7.07;3.80;;;;;;;;;;5071379;28;20464;-39
2021/08/18 03:43:05;;;;;;;5.78;4.13;;;;;;;;;;5071224;28;20391;-40
2021/08/18 03:45:30;;;;;;;10.95;5.65;;;;;;;;;;5076503;28;20048;-41
2021/08/18 03:47:55;;;;;;;11.05;3.55;;;;;;;;;;5074491;28;20020;-39
2021/08/18 03:50:21;;;;;;;6.07;4.60;;;;;;;;;;5078701;28;20412;-40
2021/08/18 03:52:46;;;;;;;10.15;5.50;;;;;;;;;;5075605;28;20027;-41
2021/08/18 03:55:12;;;;;;;7.57;5.13;;;;;;;;;;5071390;28;20483;-38
2021/08/18 03:57:38;;;;;;;7.80;5.22;;;;;;;;;;5074973;28;20769;-39
2021/08/18 04:00:04;;;;;;;6.45;4.90;;;;;;;;;;5076541;28;20036;-41
2021/08/18 04:02:29;;;;;;;7.80;4.78;;;;;;;;;;5074875;28;20051;-39
2021/08/18 04:04:54;;;;;;;9.88;4.63;;;;;;;;;;5073104;28;20036;-40
2021/08/18 04:07:20;;;;;;;4.57;4.10;;;;;;;;;;5076344;28;20050;-40
2021/08/18 04:09:45;;;;;;;19.25;4.97;;;;;;;;;;5072031;28;20083;-40
2021/08/18 04:12:10;;;;;;;9.93;5.03;;;;;;;;;;5074758;28;20601;-39
2021/08/18 04:14:35;;;;;;;8.55;5.72;;;;;;;;;;5075753;28;20650;-40
2021/08/18 04:17:01;;;;;;;12.23;4.95;;;;;;;;;;5077076;28;20034;-38
2021/08/18 04:19:26;;;;;;;8.07;4.55;;;;;;;;;;5074996;28;20028;-39
2021/08/18 04:21:51;;;;;;;8.75;4.93;;;;;;;;;;5075889;28;20079;-39
2021/08/18 04:24:17;;;;;;;7.90;4.72;;;;;;;;;;5072311;28;20468;-40
2021/08/18 04:26:42;;;;;;;18.40;5.43;;;;;;;;;;5071814;28;20075;-42
2021/08/18 04:29:07;;;;;;;7.18;4.15;;;;;;;;;;5076280;28;20023;-39
2021/08/18 04:31:33;;;;;;;10.35;4.22;;;;;;;;;;5074626;28;20024;-39
2021/08/18 04:33:58;;;;;;;10.48;4.97;;;;;;;;;;5073234;28;20040;-40
2021/08/18 04:36:23;;;;;;;8.43;4.00;;;;;;;;;;5074483;28;20466;-39
2021/08/18 04:38:49;;;;;;;13.82;7.20;;;;;;;;;;5072223;28;20023;-39
2021/08/18 04:41:14;;;;;;;7.18;4.65;;;;;;;;;;5072596;28;20071;-43
2021/08/18 04:43:39;;;;;;;10.52;3.90;;;;;;;;;;5072837;28;20028;-41
2021/08/18 04:46:04;;;;;;;11.30;4.47;;;;;;;;;;5070008;28;20032;-42
2021/08/18 04:48:30;;;;;;;7.68;6.00;;;;;;;;;;5075359;28;20020;-39
2021/08/18 04:50:55;;;;;;;11.30;6.05;;;;;;;;;;5076482;28;20434;-39
2021/08/18 04:53:20;;;;;;;5.90;4.32;;;;;;;;;;5068082;28;20387;-40
2021/08/18 04:55:46;;;;;;;14.57;5.50;;;;;;;;;;5071934;28;20103;-39
2021/08/18 04:58:11;;;;;;;13.48;5.10;;;;;;;;;;5071864;28;20101;-39
2021/08/18 05:00:37;;;;;;;13.85;4.63;;;;;;;;;;5075219;28;20080;-39
2021/08/18 05:03:02;;;;;;;5.70;4.43;;;;;;;;;;5074957;28;20049;-43
2021/08/18 05:05:27;;;;;;;10.23;4.03;;;;;;;;;;5070702;28;20106;-39
2021/08/18 05:07:53;;;;;;;9.00;5.30;;;;;;;;;;5075568;28;20430;-39
2021/08/18 05:10:18;;;;;;;7.63;5.28;;;;;;;;;;5075195;28;20145;-38
2021/08/18 05:12:44;;;;;;;9.52;6.40;;;;;;;;;;5076694;28;20099;-41
2021/08/18 05:15:10;;;;;;;10.40;5.40;;;;;;;;;;5071605;28;20020;-42
2021/08/18 05:17:35;;;;;;;10.25;6.20;;;;;;;;;;5072022;28;20487;-42
2021/08/18 05:20:00;;;;;;;13.10;5.07;;;;;;;;;;5075349;28;20550;-41
2021/08/18 05:22:25;;;;;;;7.55;5.00;;;;;;;;;;5076321;28;20537;-39
2021/08/18 05:24:51;;;;;;;8.48;5.95;;;;;;;;;;5075597;28;20369;-42
2021/08/18 05:27:17;;;;;;;13.35;6.05;;;;;;;;;;5075362;28;20029;-40
2021/08/18 05:29:42;;;;;;;7.05;4.80;;;;;;;;;;5073186;28;20028;-40
2021/08/18 05:32:08;;;;;;;10.13;5.13;;;;;;;;;;5076398;28;20017;-41
2021/08/18 05:34:34;;;;;;;7.63;5.13;;;;;;;;;;5070969;28;20031;-42
2021/08/18 05:36:59;;;;;;;7.95;4.97;;;;;;;;;;5076060;28;20471;-40
2021/08/18 05:39:24;;;;;;;12.82;6.20;;;;;;;;;;5076516;28;20191;-41
2021/08/18 05:41:49;;;;;;;13.70;6.78;;;;;;;;;;5074246;28;20025;-39
2021/08/18 05:44:15;;;;;;;10.55;5.82;;;;;;;;;;5077967;28;20027;-39
2021/08/18 05:46:40;;;;;;;11.02;6.07;;;;;;;;;;5073957;28;20112;-39
2021/08/18 05:49:05;;;;;;;8.32;4.43;;;;;;;;;;5070364;28;20361;-39
2021/08/18 05:51:31;;;;;;;8.38;4.68;;;;;;;;;;5077755;28;20055;-40
2021/08/18 05:53:56;;;;;;;8.93;5.35;;;;;;;;;;5078502;28;20040;-39
2021/08/18 05:56:21;;;;;;;15.77;5.20;;;;;;;;;;5080503;28;20020;-44
2021/08/18 05:58:47;;;;;;;13.70;7.25;;;;;;;;;;5077280;28;20051;-42
2021/08/18 06:01:12;;;;;;;24.85;8.60;;;;;;;;;;5079368;28;20028;-40
2021/08/18 06:03:37;;;;;;;13.90;5.13;;;;;;;;;;5075198;28;20052;-40
2021/08/18 06:06:03;;;;;;;13.73;4.47;;;;;;;;;;5079085;28;20482;-39
2021/08/18 06:08:29;;;;;;;17.02;5.55;;;;;;;;;;5078529;28;20031;-44
2021/08/18 06:10:54;;;;;;;9.55;3.55;;;;;;;;;;5078894;28;20016;-40
2021/08/18 06:13:19;;;;;;;12.52;4.43;;;;;;;;;;5076760;28;20402;-41
2021/08/18 06:15:45;;;;;;;9.20;4.35;;;;;;;;;;5075485;28;20116;-45
2021/08/18 06:18:10;;;;;;;11.13;5.28;;;;;;;;;;5075564;28;20017;-40
2021/08/18 06:20:35;;;;;;;12.68;6.72;;;;;;;;;;5072273;28;20024;-49
2021/08/18 06:23:01;;;;;;;14.90;6.90;;;;;;;;;;5074887;28;20031;-40
2021/08/18 06:25:28;;;;;;;13.30;5.53;;;;;;;;;;5065274;28;20036;-40
2021/08/18 06:27:53;;;;;;;9.05;5.05;;;;;;;;;;5069046;28;20170;-39
2021/08/18 06:30:18;;;;;;;8.77;5.38;;;;;;;;;;5069649;28;20115;-39
2021/08/18 06:32:44;;;;;;;13.23;7.55;;;;;;;;;;5072925;28;20024;-40
2021/08/18 06:35:09;;;;;;;20.98;6.78;;;;;;;;;;5074968;28;20023;-42
2021/08/18 06:37:35;;;;;;;11.50;5.45;;;;;;;;;;5075880;28;20493;-39
2021/08/18 06:40:03;;;;;;;17.17;5.50;;;;;;;;;;5077088;28;20112;-40
2021/08/18 06:42:28;;;;;;;18.88;5.55;;;;;;;;;;5075938;28;20110;-50
2021/08/18 06:44:54;;;;;;;12.40;5.63;;;;;;;;;;5079104;28;20146;-46
2021/08/18 06:47:19;;;;;;;15.40;5.68;;;;;;;;;;5076585;28;20028;-46
2021/08/18 06:49:45;;;;;;;9.10;6.57;;;;;;;;;;5072915;28;20025;-48
2021/08/18 06:52:10;;;;;;;16.95;6.68;;;;;;;;;;5075252;28;20024;-46
2021/08/18 06:54:36;;;;;;;18.98;7.68;;;;;;;;;;5075479;28;20064;-46
2021/08/18 06:57:01;;;;;;;7.40;4.20;;;;;;;;;;5079427;28;20180;-47
2021/08/18 06:59:27;;;;;;;9.02;4.63;;;;;;;;;;5076314;28;20028;-47
2021/08/18 07:01:53;;;;;;;13.52;6.40;;;;;;;;;;5067672;28;20024;-47
2021/08/18 07:04:18;;;;;;;14.23;5.72;;;;;;;;;;5079830;28;20032;-46
2021/08/18 07:06:43;;;;;;;11.40;5.07;;;;;;;;;;5073303;28;20123;-47
2021/08/18 07:09:08;;;;;;;13.43;5.25;;;;;;;;;;5075509;28;20017;-45
2021/08/18 07:11:34;;;;;;;21.52;6.78;;;;;;;;;;5074884;28;20017;-44
2021/08/18 07:13:59;;;;;;;5.70;3.88;;;;;;;;;;5079948;28;20108;-48
2021/08/18 07:16:26;;;;;;;6.32;4.47;;;;;;;;;;5075091;28;20047;-44
2021/08/18 07:18:51;;;;;;;13.75;4.25;;;;;;;;;;5077309;28;20020;-46
2021/08/18 07:21:20;;;;;;;10.02;3.53;;;;;;;;;;5075769;28;20035;-51
2021/08/18 07:23:45;;;;;;;9.77;5.57;;;;;;;;;;5091217;28;20039;-46
2021/08/18 07:26:10;;;;;;;14.48;7.22;;;;;;;;;;5072487;28;20487;-47
2021/08/18 07:28:36;;;;;;;11.20;5.07;;;;;;;;;;5072838;28;20025;-49
2021/08/18 07:31:01;;;;;;;19.05;7.82;;;;;;;;;;5073569;28;20012;-52
2021/08/18 07:33:26;;;;;;;9.13;6.30;;;;;;;;;;5077261;28;20043;-49
2021/08/18 07:35:51;;;;;;;6.40;3.92;;;;;;;;;;5077406;28;20438;-51
2021/08/18 07:38:17;;;;;;;15.57;5.72;;;;;;;;;;5073079;28;20009;-48
2021/08/18 07:40:42;;;;;;;9.05;3.90;;;;;;;;;;5076854;28;20081;-48
2021/08/18 07:43:07;;;;;;;10.05;4.15;;;;;;;;;;5075013;28;20031;-48
2021/08/18 07:45:33;;;;;;;18.60;5.40;;;;;;;;;;5074656;28;20024;-45
2021/08/18 07:47:58;;;;;;;8.40;3.83;;;;;;;;;;5074603;28;20028;-44
2021/08/18 07:50:23;;;;;;;12.02;5.25;;;;;;;;;;5073877;28;20059;-45
2021/08/18 07:52:49;;;;;;;11.77;3.95;;;;;;;;;;5074947;28;20047;-48
2021/08/18 07:55:15;;;;;;;9.98;5.43;;;;;;;;;;5073417;28;20516;-41
2021/08/18 07:57:40;;;;;;;10.65;4.93;;;;;;;;;;5077135;28;20016;-42
2021/08/18 08:00:05;;;;;;;9.55;5.43;;;;;;;;;;5074815;28;20561;-48
2021/08/18 08:02:31;;;;;;;16.63;5.00;;;;;;;;;;5073859;28;20090;-46
2021/08/18 08:04:57;;;;;;;10.10;4.50;;;;;;;;;;5074121;28;20025;-48
2021/08/18 08:07:22;;;;;;;9.80;2.65;;;;;;;;;;5078844;28;20036;-46
2021/08/18 08:09:47;;;;;;;8.23;5.68;;;;;;;;;;5074937;28;20017;-45
2021/08/18 08:12:12;;;;;;;13.85;4.82;;;;;;;;;;5073888;28;20016;-53
2021/08/18 08:14:38;;;;;;;8.95;3.40;;;;;;;;;;5074411;28;20047;-49
2021/08/18 08:17:03;;;;;;;12.25;4.03;;;;;;;;;;5077462;28;20024;-47
2021/08/18 08:19:28;;;;;;;9.25;4.78;;;;;;;;;;5076425;28;20511;-49
2021/08/18 08:21:54;;;;;;;8.48;2.63;;;;;;;;;;5077176;28;20035;-50
2021/08/18 08:24:19;;;;;;;4.78;2.03;;;;;;;;;;5076980;28;20039;-54
2021/08/18 08:26:44;;;;;;;10.88;5.57;;;;;;;;;;5072672;28;20379;-48
2021/08/18 08:29:10;;;;;;;10.45;4.38;;;;;;;;;;5060231;28;20052;-49
2021/08/18 08:31:35;;;;;;;5.15;3.25;;;;;;;;;;5075861;28;20069;-44
2021/08/18 08:34:01;;;;;;;9.48;3.63;;;;;;;;;;5073452;28;20379;-49
2021/08/18 08:36:26;;;;;;;9.30;3.17;;;;;;;;;;5076220;28;20511;-47
2021/08/18 08:38:51;;;;;;;18.02;5.68;;;;;;;;;;5073556;28;20016;-47
2021/08/18 08:41:17;;;;;;;8.65;4.20;;;;;;;;;;5070723;28;20427;-48
2021/08/18 08:43:43;;;;;;;6.70;3.50;;;;;;;;;;5073985;28;20028;-45
2021/08/18 08:46:08;;;;;;;5.13;2.50;;;;;;;;;;5074824;28;20021;-48
2021/08/18 08:48:34;;;;;;;8.95;3.95;;;;;;;;;;5071388;28;20106;-50
2021/08/18 08:51:00;;;;;;;6.80;2.50;;;;;;;;;;5070165;28;20652;-49
2021/08/18 08:53:26;;;;;;;11.90;5.13;;;;;;;;;;5071730;28;20096;-51
2021/08/18 08:55:53;;;;;;;8.25;4.38;;;;;;;;;;5074991;28;20016;-50
2021/08/18 08:58:18;;;;;;;7.00;3.72;;;;;;;;;;5072896;28;20013;-48
2021/08/18 09:00:44;;;;;;;6.63;3.80;;;;;;;;;;5069933;28;20032;-48
2021/08/18 09:03:15;;;;;;;5.95;3.08;;;;;;;;;;5074505;28;20112;-50
2021/08/18 09:05:41;;;;;;;6.93;3.83;;;;;;;;;;5075641;28;20087;-47
2021/08/18 09:08:10;;;;;;;12.00;4.43;;;;;;;;;;5073678;28;20384;-46
2021/08/18 09:10:36;;;;;;;40.10;6.93;;;;;;;;;;5071777;28;20039;-50
2021/08/18 09:13:14;;;;;;;2.75;1.92;;;;;;;;;;5074559;28;20088;-49
2021/08/18 09:15:40;;;;;;;11.10;4.45;;;;;;;;;;5076007;28;20024;-51
2021/08/18 09:18:06;;;;;;;4.93;2.78;;;;;;;;;;5072740;28;20104;-49
2021/08/18 09:20:32;;;;;;;8.13;4.18;;;;;;;;;;5076671;28;20480;-45
2021/08/18 09:22:59;;;;;;;5.15;3.65;;;;;;;;;;5073314;28;20020;-48
2021/08/18 09:25:24;;;;;;;6.55;4.40;;;;;;;;;;5076982;28;20024;-48
2021/08/18 09:28:10;;;;;;;4.45;1.88;;;;;;;;;;5074811;28;20107;-50
2021/08/18 09:30:39;;;;;;;14.55;5.07;;;;;;;;;;5067814;28;20110;-51
2021/08/18 09:33:12;;;;;;;8.40;4.07;;;;;;;;;;5074560;28;20094;-47
2021/08/18 09:35:38;;;;;;;2.50;1.98;;;;;;;;;;5075257;28;20028;-48
2021/08/18 09:38:07;;;;;;;8.18;4.15;;;;;;;;;;5072281;28;20100;-49
2021/08/18 09:40:38;;;;;;;7.90;5.07;;;;;;;;;;5077063;28;20051;-47
2021/08/18 09:43:13;;;;;;;9.20;3.40;;;;;;;;;;5075671;28;20024;-45
2021/08/18 09:45:40;;;;;;;7.97;3.50;;;;;;;;;;5070448;28;20105;-47
2021/08/18 09:48:12;;;;;;;14.23;4.78;;;;;;;;;;5066651;28;20024;-47
2021/08/18 09:50:50;;;;;;;6.57;3.42;;;;;;;;;;5072514;28;20483;-47
2021/08/18 09:53:19;;;;;;;9.45;4.07;;;;;;;;;;5071774;28;20012;-49
2021/08/18 09:55:52;;;;;;;3.72;2.22;;;;;;;;;;5072413;28;20099;-47
2021/08/18 09:58:23;;;;;;;6.53;2.55;;;;;;;;;;5071699;28;20111;-51
2021/08/18 10:00:48;;;;;;;3.75;2.88;;;;;;;;;;5071589;28;20048;-48
2021/08/18 10:03:13;;;;;;;8.18;3.03;;;;;;;;;;5073032;28;20408;-50
2021/08/18 10:05:42;;;;;;;13.45;4.30;;;;;;;;;;5075505;28;20633;-47
2021/08/18 10:08:08;;;;;;;9.32;2.50;;;;;;;;;;5076905;28;20051;-46
2021/08/18 10:10:33;;;;;;;8.27;5.13;;;;;;;;;;5075531;28;20036;-45
2021/08/18 10:12:59;;;;;;;9.50;2.78;;;;;;;;;;5076146;28;20488;-49
2021/08/18 10:15:25;;;;;;;7.93;3.50;;;;;;;;;;5070006;28;20480;-50
2021/08/18 10:17:50;;;;;;;4.97;2.70;;;;;;;;;;5079878;28;20413;-49
2021/08/18 10:20:16;;;;;;;11.63;3.20;;;;;;;;;;5072753;28;20062;-48
2021/08/18 10:22:41;;;;;;;10.40;3.47;;;;;;;;;;5073147;28;20027;-45
2021/08/18 10:25:25;;;;;;;3.65;2.40;;;;;;;;;;5071795;28;20028;-45
2021/08/18 10:27:50;;;;;;;3.30;1.80;;;;;;;;;;5072239;28;20020;-48
2021/08/18 10:30:23;;;;;;;15.15;4.35;;;;;;;;;;5078768;28;20031;-50
2021/08/18 10:32:49;;;;;;;6.22;2.40;;;;;;;;;;5076590;28;20630;-48
2021/08/18 10:35:33;;;;;;;7.32;2.05;;;;;;;;;;5078644;28;20024;-50
2021/08/18 10:38:18;;;;;;;5.88;2.13;;;;;;;;;;5077673;28;20016;-45
2021/08/18 10:40:43;;;;;;;7.25;2.78;;;;;;;;;;5072030;28;20025;-50
2021/08/18 10:43:09;;;;;;;10.13;3.00;;;;;;;;;;5077592;28;20027;-50
2021/08/18 10:45:37;;;;;;;6.20;3.08;;;;;;;;;;5078637;28;20029;-48
2021/08/18 10:48:03;;;;;;;6.20;3.70;;;;;;;;;;5077049;28;20099;-52
2021/08/18 10:50:39;;;;;;;6.60;3.70;;;;;;;;;;5076788;28;20032;-44
2021/08/18 10:53:24;;;;;;;2.83;0.93;;;;;;;;;;5080713;28;20036;-43
2021/08/18 10:55:49;;;;;;;5.95;2.17;;;;;;;;;;5076334;28;20035;-45
2021/08/18 10:58:41;;;;;;;7.47;6.20;;;;;;;;;;5074943;28;20463;-43
2021/08/18 11:01:26;;;;;;;4.57;2.03;;;;;;;;;;5074226;28;20067;-42
2021/08/18 11:03:52;;;;;;;6.75;3.35;;;;;;;;;;5068419;28;20047;-45
2021/08/18 11:06:37;;;;;;;3.88;1.90;;;;;;;;;;5074197;28;20364;-43
2021/08/18 11:09:02;;;;;;;11.85;2.90;;;;;;;;;;5078346;28;20020;-42
2021/08/18 11:11:40;;;;;;;15.65;5.38;;;;;;;;;;5071781;28;20047;-46
2021/08/18 11:14:09;;;;;;;17.02;2.65;;;;;;;;;;5074836;28;20024;-42
2021/08/18 11:16:34;;;;;;;7.32;1.05;;;;;;;;;;5073112;28;20516;-44
2021/08/18 11:19:10;;;;;;;4.32;2.22;;;;;;;;;;5075195;28;20032;-44
2021/08/18 11:21:39;;;;;;;2.90;2.05;;;;;;;;;;5074207;28;20520;-45
2021/08/18 11:24:06;;;;;;;9.27;3.40;;;;;;;;;;5073907;28;20021;-48
2021/08/18 11:26:32;;;;;;;0.80;0.55;;;;;;;;;;5076928;28;20024;-46
2021/08/18 11:29:09;;;;;;;4.55;1.98;;;;;;;;;;5076462;28;20216;-43
2021/08/18 11:31:39;;;;;;;4.63;1.55;;;;;;;;;;5073261;28;20107;-44
2021/08/18 11:34:16;;;;;;;3.25;2.13;;;;;;;;;;5075005;28;20016;-44
2021/08/18 11:36:44;;;;;;;2.67;1.90;;;;;;;;;;5073396;28;20021;-43
2021/08/18 11:39:10;;;;;;;2.83;1.25;;;;;;;;;;5075481;28;20063;-42
2021/08/18 11:41:36;;;;;;;4.18;1.50;;;;;;;;;;5077195;28;20130;-44
2021/08/18 11:44:02;;;;;;;4.53;2.17;;;;;;;;;;5070587;28;20021;-47
2021/08/18 11:46:28;;;;;;;4.00;1.65;;;;;;;;;;5077102;28;20021;-43
2021/08/18 11:49:01;;;;;;;4.43;2.45;;;;;;;;;;5079127;28;20166;-45
2021/08/18 11:51:26;;;;;;;8.63;2.72;;;;;;;;;;5071563;28;20078;-46
2021/08/18 11:53:55;;;;;;;3.28;1.98;;;;;;;;;;5077284;28;20507;-44
2021/08/18 11:56:23;;;;;;;3.33;1.48;;;;;;;;;;5074895;28;20514;-47
2021/08/18 11:58:54;;;;;;;4.97;2.55;;;;;;;;;;5079759;28;20024;-43
2021/08/18 12:01:21;;;;;;;11.68;3.85;;;;;;;;;;5066815;28;20066;-46
2021/08/18 12:03:46;;;;;;;5.72;3.45;;;;;;;;;;5071693;28;20097;-49
2021/08/18 12:06:12;;;;;;;9.18;5.57;;;;;;;;;;5077622;28;20110;-51
2021/08/18 12:08:43;;;;;;;9.73;3.55;;;;;;;;;;5074008;28;20027;-48
2021/08/18 12:11:09;;;;;;;2.78;2.13;;;;;;;;;;5073717;28;20012;-46
2021/08/18 12:13:42;;;;;;;5.10;4.10;;;;;;;;;;5075285;28;20029;-47
2021/08/18 12:16:26;;;;;;;5.63;2.97;;;;;;;;;;5072498;28;20016;-46
2021/08/18 12:18:52;;;;;;;11.23;4.15;;;;;;;;;;5094498;28;20076;-47
2021/08/18 12:21:29;;;;;;;2.42;1.23;;;;;;;;;;5075068;28;20020;-45
2021/08/18 12:23:56;;;;;;;2.15;1.38;;;;;;;;;;5069120;28;20048;-47
2021/08/18 12:26:25;;;;;;;5.30;1.95;;;;;;;;;;5071848;28;20103;-46
2021/08/18 12:28:51;;;;;;;5.38;1.73;;;;;;;;;;5073242;28;20109;-46
2021/08/18 12:31:16;;;;;;;1.90;1.70;;;;;;;;;;5080174;28;20046;-49
2021/08/18 12:33:42;;;;;;;7.13;4.38;;;;;;;;;;5072782;28;20558;-45
2021/08/18 12:36:09;;;;;;;13.70;3.28;;;;;;;;;;5074686;28;20020;-53
2021/08/18 12:38:34;;;;;;;2.97;2.13;;;;;;;;;;5076094;28;20089;-45
2021/08/18 12:41:06;;;;;;;9.85;2.63;;;;;;;;;;5074002;28;20430;-47
2021/08/18 12:43:32;;;;;;;7.88;3.58;;;;;;;;;;5078535;28;20102;-48
2021/08/18 12:45:57;;;;;;;6.53;1.38;;;;;;;;;;5077706;28;20095;-47
2021/08/18 12:48:23;;;;;;;4.20;2.17;;;;;;;;;;5074366;28;20103;-45
2021/08/18 12:50:48;;;;;;;3.72;1.83;;;;;;;;;;5069677;28;20020;-45
2021/08/18 12:53:16;;;;;;;6.28;2.78;;;;;;;;;;5076864;28;20043;-44
2021/08/18 12:55:43;;;;;;;3.03;2.33;;;;;;;;;;5070019;28;20236;-44
2021/08/18 12:58:18;;;;;;;5.88;1.63;;;;;;;;;;5069061;28;20165;-45
2021/08/18 13:00:43;;;;;;;12.70;2.50;;;;;;;;;;5075949;28;20020;-44
2021/08/18 13:03:08;;;;;;;13.02;3.45;;;;;;;;;;5067966;28;20048;-46
2021/08/18 13:05:33;;;;;;;9.02;3.40;;;;;;;;;;5075612;28;20433;-44
2021/08/18 13:07:59;;;;;;;12.85;3.35;;;;;;;;;;5071815;28;20023;-45
2021/08/18 13:10:24;;;;;;;5.53;2.25;;;;;;;;;;5071108;28;20041;-46
2021/08/18 13:12:49;;;;;;;3.10;1.75;;;;;;;;;;5076329;28;20399;-48
2021/08/18 13:15:15;;;;;;;4.90;3.50;;;;;;;;;;5068276;28;20017;-45
2021/08/18 13:17:40;;;;;;;1.73;0.98;;;;;;;;;;5072394;28;20154;-47
2021/08/18 13:20:06;;;;;;;6.10;2.65;;;;;;;;;;5072836;28;20025;-46
2021/08/18 13:22:31;;;;;;;26.60;2.70;;;;;;;;;;5069461;28;20519;-46
2021/08/18 13:24:56;;;;;;;3.67;1.92;;;;;;;;;;5073236;28;20051;-46
2021/08/18 13:27:21;;;;;;;6.43;2.72;;;;;;;;;;5073213;28;20571;-45
2021/08/18 13:29:47;;;;;;;3.65;2.17;;;;;;;;;;5073912;28;20041;-45
2021/08/18 13:32:13;;;;;;;3.70;2.53;;;;;;;;;;5071434;28;20481;-45
2021/08/18 13:34:38;;;;;;;9.38;2.78;;;;;;;;;;5073031;28;20020;-46
2021/08/18 13:37:04;;;;;;;7.30;2.88;;;;;;;;;;5074646;28;20033;-45
2021/08/18 13:39:29;;;;;;;2.95;1.33;;;;;;;;;;5075442;28;20026;-47
2021/08/18 13:41:54;;;;;;;1.80;1.13;;;;;;;;;;5071216;28;20032;-49
2021/08/18 13:44:20;;;;;;;4.90;2.90;;;;;;;;;;5074242;28;20157;-50
2021/08/18 13:46:46;;;;;;;3.63;2.15;;;;;;;;;;5072208;28;20031;-51
2021/08/18 13:49:14;;;;;;;3.63;2.47;;;;;;;;;;5073714;28;20035;-52
2021/08/18 13:51:40;;;;;;;3.40;2.78;;;;;;;;;;5076193;28;20552;-51
2021/08/18 13:54:06;;;;;;;15.30;3.72;;;;;;;;;;5072244;28;20028;-51
2021/08/18 13:56:32;;;;;;;6.18;2.35;;;;;;;;;;5075134;28;20019;-50
2021/08/18 13:58:58;;;;;;;3.47;2.20;;;;;;;;;;5072293;28;20012;-47
2021/08/18 14:01:23;;;;;;;5.88;3.38;;;;;;;;;;5071973;28;20028;-45
2021/08/18 14:03:48;;;;;;;8.43;3.17;;;;;;;;;;5078931;28;20059;-44
2021/08/18 14:06:14;;;;;;;4.68;2.42;;;;;;;;;;5078114;28;20041;-46
2021/08/18 14:08:40;;;;;;;11.98;2.83;;;;;;;;;;5075027;28;20428;-47
2021/08/18 14:11:06;;;;;;;10.15;3.40;;;;;;;;;;5068591;28;20025;-46
2021/08/18 14:13:31;;;;;;;5.78;2.42;;;;;;;;;;5076671;28;20044;-52
2021/08/18 14:15:56;;;;;;;3.83;1.90;;;;;;;;;;5075455;28;20020;-52
2021/08/18 14:18:22;;;;;;;6.25;1.65;;;;;;;;;;5078983;28;20107;-49
2021/08/18 14:20:47;;;;;;;6.15;2.85;;;;;;;;;;5077439;28;20380;-50
2021/08/18 14:23:13;;;;;;;4.22;2.45;;;;;;;;;;5075867;28;20016;-49
2021/08/18 14:25:38;;;;;;;14.10;3.35;;;;;;;;;;5072514;28;20059;-50
2021/08/18 14:28:04;;;;;;;10.80;3.40;;;;;;;;;;5080869;28;20025;-51
2021/08/18 14:30:30;;;;;;;4.90;3.42;;;;;;;;;;5077812;28;20043;-48
2021/08/18 14:32:56;;;;;;;15.60;4.85;;;;;;;;;;5074831;28;20024;-50
2021/08/18 14:35:22;;;;;;;9.10;3.78;;;;;;;;;;5080619;28;20016;-50